sensor_id;sensor_type;location;lat;lon;timestamp;pressure;altitude;pressure_sealevel;temperature;humidity
28701;BME280;15877;52.344;16.790;2023-02-27T00:01:27;101482.57;;;4.39;56.57
28701;BME280;15877;52.344;16.790;2023-02-27T00:04:01;101480.15;;;4.36;56.72
28701;BME280;15877;52.344;16.790;2023-02-27T00:06:33;101482.91;;;4.35;56.80
28701;BME280;15877;52.344;16.790;2023-02-27T00:09:06;101477.23;;;4.28;56.81
28701;BME280;15877;52.344;16.790;2023-02-27T00:11:39;101477.34;;;4.31;56.87
28701;BME280;15877;52.344;16.790;2023-02-27T00:14:13;101480.77;;;4.24;57.05
28701;BME280;15877;52.344;16.790;2023-02-27T00:16:45;101480.44;;;4.23;57.15
28701;BME280;15877;52.344;16.790;2023-02-27T00:19:18;101479.48;;;4.29;56.91
28701;BME280;15877;52.344;16.790;2023-02-27T00:21:51;101479.22;;;4.24;57.08
28701;BME280;15877;52.344;16.790;2023-02-27T00:24:23;101476.38;;;4.22;57.10
28701;BME280;15877;52.344;16.790;2023-02-27T00:26:56;101480.75;;;4.18;57.35
28701;BME280;15877;52.344;16.790;2023-02-27T00:29:28;101483.52;;;4.20;57.16
28701;BME280;15877;52.344;16.790;2023-02-27T00:32:00;101480.77;;;4.23;57.00
28701;BME280;15877;52.344;16.790;2023-02-27T00:34:33;101479.55;;;4.23;56.98
28701;BME280;15877;52.344;16.790;2023-02-27T00:37:06;101484.09;;;4.22;56.85
28701;BME280;15877;52.344;16.790;2023-02-27T00:39:38;101475.10;;;4.07;56.94
28701;BME280;15877;52.344;16.790;2023-02-27T00:42:11;101492.77;;;4.02;57.42
28701;BME280;15877;52.344;16.790;2023-02-27T00:44:43;101488.16;;;4.14;57.16
28701;BME280;15877;52.344;16.790;2023-02-27T00:47:16;101485.74;;;4.18;56.92
28701;BME280;15877;52.344;16.790;2023-02-27T00:49:49;101478.98;;;4.14;56.92
28701;BME280;15877;52.344;16.790;2023-02-27T00:52:21;101486.27;;;4.08;57.00
28701;BME280;15877;52.344;16.790;2023-02-27T00:54:55;101490.10;;;4.05;57.06
28701;BME280;15877;52.344;16.790;2023-02-27T00:57:27;101487.20;;;4.04;56.99
28701;BME280;15877;52.344;16.790;2023-02-27T01:00:00;101493.27;;;3.97;57.16
28701;BME280;15877;52.344;16.790;2023-02-27T01:02:35;101494.42;;;3.98;57.39
28701;BME280;15877;52.344;16.790;2023-02-27T01:05:09;101477.66;;;3.80;57.68
28701;BME280;15877;52.344;16.790;2023-02-27T01:07:41;101492.38;;;3.90;57.78
28701;BME280;15877;52.344;16.790;2023-02-27T01:10:14;101491.98;;;3.91;57.73
28701;BME280;15877;52.344;16.790;2023-02-27T01:12:47;101493.39;;;3.96;57.58
28701;BME280;15877;52.344;16.790;2023-02-27T01:15:19;101496.24;;;3.93;57.68
28701;BME280;15877;52.344;16.790;2023-02-27T01:17:52;101493.69;;;3.86;57.97
28701;BME280;15877;52.344;16.790;2023-02-27T01:20:24;101495.17;;;3.86;58.01
28701;BME280;15877;52.344;16.790;2023-02-27T01:22:57;101498.81;;;3.82;58.33
28701;BME280;15877;52.344;16.790;2023-02-27T01:25:29;101502.43;;;3.77;58.56
28701;BME280;15877;52.344;16.790;2023-02-27T01:28:01;101504.24;;;3.77;58.75
28701;BME280;15877;52.344;16.790;2023-02-27T01:30:34;101501.13;;;3.75;58.97
28701;BME280;15877;52.344;16.790;2023-02-27T01:33:06;101502.58;;;3.75;59.03
28701;BME280;15877;52.344;16.790;2023-02-27T01:35:42;101501.81;;;3.74;59.15
28701;BME280;15877;52.344;16.790;2023-02-27T01:38:16;101500.39;;;3.72;59.04
28701;BME280;15877;52.344;16.790;2023-02-27T01:40:49;101500.07;;;3.72;58.96
28701;BME280;15877;52.344;16.790;2023-02-27T01:43:24;101503.55;;;3.71;59.20
28701;BME280;15877;52.344;16.790;2023-02-27T01:45:57;101503.83;;;3.69;59.36
28701;BME280;15877;52.344;16.790;2023-02-27T01:48:32;101502.82;;;3.72;59.31
28701;BME280;15877;52.344;16.790;2023-02-27T01:51:10;101505.29;;;3.68;59.50
28701;BME280;15877;52.344;16.790;2023-02-27T01:53:45;101510.39;;;3.68;59.54
28701;BME280;15877;52.344;16.790;2023-02-27T01:56:21;101508.92;;;3.72;59.44
28701;BME280;15877;52.344;16.790;2023-02-27T01:58:57;101493.94;;;3.61;59.57
28701;BME280;15877;52.344;16.790;2023-02-27T02:01:32;101507.96;;;3.70;59.39
28701;BME280;15877;52.344;16.790;2023-02-27T02:04:09;101511.73;;;3.72;59.59
28701;BME280;15877;52.344;16.790;2023-02-27T02:06:48;101506.02;;;3.66;59.71
28701;BME280;15877;52.344;16.790;2023-02-27T02:09:22;101512.42;;;3.69;59.72
28701;BME280;15877;52.344;16.790;2023-02-27T02:11:55;101511.40;;;3.72;59.49
28701;BME280;15877;52.344;16.790;2023-02-27T02:14:29;101516.77;;;3.69;59.57
28701;BME280;15877;52.344;16.790;2023-02-27T02:17:10;101515.28;;;3.69;59.49
28701;BME280;15877;52.344;16.790;2023-02-27T02:20:00;101515.09;;;3.70;59.42
28701;BME280;15877;52.344;16.790;2023-02-27T02:26:20;101513.42;;;3.63;59.71
28701;BME280;15877;52.344;16.790;2023-02-27T02:32:41;101514.34;;;3.70;59.33
28701;BME280;15877;52.344;16.790;2023-02-27T02:35:35;101518.66;;;3.66;59.48
28701;BME280;15877;52.344;16.790;2023-02-27T02:41:25;101524.79;;;3.63;59.64
28701;BME280;15877;52.344;16.790;2023-02-27T02:44:06;101524.08;;;3.62;59.48
28701;BME280;15877;52.344;16.790;2023-02-27T02:46:46;101524.73;;;3.60;59.43
28701;BME280;15877;52.344;16.790;2023-02-27T02:49:32;101531.63;;;3.56;59.66
28701;BME280;15877;52.344;16.790;2023-02-27T02:52:09;101536.57;;;3.57;59.91
28701;BME280;15877;52.344;16.790;2023-02-27T02:54:51;101535.61;;;3.59;59.97
28701;BME280;15877;52.344;16.790;2023-02-27T02:57:32;101540.98;;;3.55;60.00
28701;BME280;15877;52.344;16.790;2023-02-27T03:00:12;101544.63;;;3.54;60.13
28701;BME280;15877;52.344;16.790;2023-02-27T03:02:50;101546.79;;;3.51;60.16
28701;BME280;15877;52.344;16.790;2023-02-27T03:05:28;101544.79;;;3.49;60.32
28701;BME280;15877;52.344;16.790;2023-02-27T03:08:06;101546.33;;;3.48;60.28
28701;BME280;15877;52.344;16.790;2023-02-27T03:10:43;101549.37;;;3.47;60.15
28701;BME280;15877;52.344;16.790;2023-02-27T03:13:19;101546.49;;;3.43;60.12
28701;BME280;15877;52.344;16.790;2023-02-27T03:16:00;101555.09;;;3.45;60.41
28701;BME280;15877;52.344;16.790;2023-02-27T03:18:36;101550.90;;;3.43;60.23
28701;BME280;15877;52.344;16.790;2023-02-27T03:21:13;101555.46;;;3.36;60.58
28701;BME280;15877;52.344;16.790;2023-02-27T03:23:49;101562.21;;;3.36;60.68
28701;BME280;15877;52.344;16.790;2023-02-27T03:26:32;101556.95;;;3.35;60.77
28701;BME280;15877;52.344;16.790;2023-02-27T03:29:08;101560.03;;;3.34;60.65
28701;BME280;15877;52.344;16.790;2023-02-27T03:31:45;101542.52;;;3.26;60.69
28701;BME280;15877;52.344;16.790;2023-02-27T03:34:21;101545.27;;;3.26;60.66
28701;BME280;15877;52.344;16.790;2023-02-27T03:37:02;101562.45;;;3.34;60.33
28701;BME280;15877;52.344;16.790;2023-02-27T03:39:43;101567.77;;;3.23;60.77
28701;BME280;15877;52.344;16.790;2023-02-27T03:42:22;101570.17;;;3.25;60.84
28701;BME280;15877;52.344;16.790;2023-02-27T03:45:27;101573.30;;;3.25;60.82
28701;BME280;15877;52.344;16.790;2023-02-27T03:48:03;101576.48;;;3.25;60.86
28701;BME280;15877;52.344;16.790;2023-02-27T03:50:37;101581.71;;;3.23;60.39
28701;BME280;15877;52.344;16.790;2023-02-27T03:53:15;101577.56;;;3.21;60.51
28701;BME280;15877;52.344;16.790;2023-02-27T03:55:54;101584.23;;;3.19;60.50
28701;BME280;15877;52.344;16.790;2023-02-27T03:58:27;101587.05;;;3.17;60.62
28701;BME280;15877;52.344;16.790;2023-02-27T04:01:00;101592.70;;;3.17;60.84
28701;BME280;15877;52.344;16.790;2023-02-27T04:03:34;101580.80;;;3.06;60.77
28701;BME280;15877;52.344;16.790;2023-02-27T04:06:09;101599.57;;;3.16;60.93
28701;BME280;15877;52.344;16.790;2023-02-27T04:09:00;101602.31;;;3.17;61.11
28701;BME280;15877;52.344;16.790;2023-02-27T04:11:59;101604.99;;;3.17;61.32
28701;BME280;15877;52.344;16.790;2023-02-27T04:14:42;101607.84;;;3.19;61.89
28701;BME280;15877;52.344;16.790;2023-02-27T04:17:26;101611.08;;;3.19;62.21
28701;BME280;15877;52.344;16.790;2023-02-27T04:20:19;101594.89;;;3.12;62.37
28701;BME280;15877;52.344;16.790;2023-02-27T04:22:56;101612.83;;;3.20;63.06
28701;BME280;15877;52.344;16.790;2023-02-27T04:25:40;101609.00;;;3.18;63.54
28701;BME280;15877;52.344;16.790;2023-02-27T04:28:17;101610.73;;;3.22;63.55
28701;BME280;15877;52.344;16.790;2023-02-27T04:31:00;101613.86;;;3.30;63.36
28701;BME280;15877;52.344;16.790;2023-02-27T04:33:43;101614.38;;;3.33;63.50
28701;BME280;15877;52.344;16.790;2023-02-27T04:36:24;101595.89;;;3.24;63.61
28701;BME280;15877;52.344;16.790;2023-02-27T04:39:03;101593.00;;;3.27;63.90
28701;BME280;15877;52.344;16.790;2023-02-27T04:41:43;101612.90;;;3.32;64.44
28701;BME280;15877;52.344;16.790;2023-02-27T04:44:19;101611.48;;;3.30;64.68
28701;BME280;15877;52.344;16.790;2023-02-27T04:46:55;101616.01;;;3.34;64.80
28701;BME280;15877;52.344;16.790;2023-02-27T04:49:30;101617.23;;;3.38;64.92
28701;BME280;15877;52.344;16.790;2023-02-27T04:52:07;101622.08;;;3.45;64.93
28701;BME280;15877;52.344;16.790;2023-02-27T04:54:44;101625.31;;;3.45;65.27
28701;BME280;15877;52.344;16.790;2023-02-27T04:57:21;101623.00;;;3.40;65.49
28701;BME280;15877;52.344;16.790;2023-02-27T04:59:56;101627.08;;;3.45;65.60
28701;BME280;15877;52.344;16.790;2023-02-27T05:02:34;101629.56;;;3.49;65.37
28701;BME280;15877;52.344;16.790;2023-02-27T05:05:10;101626.31;;;3.50;65.68
28701;BME280;15877;52.344;16.790;2023-02-27T05:07:48;101600.19;;;3.41;65.34
28701;BME280;15877;52.344;16.790;2023-02-27T05:10:29;101629.49;;;3.51;65.73
28701;BME280;15877;52.344;16.790;2023-02-27T05:13:08;101623.80;;;3.61;65.45
28701;BME280;15877;52.344;16.790;2023-02-27T05:15:44;101630.13;;;3.60;65.75
28701;BME280;15877;52.344;16.790;2023-02-27T05:18:20;101629.37;;;3.64;65.68
28701;BME280;15877;52.344;16.790;2023-02-27T05:20:59;101635.22;;;3.68;65.63
28701;BME280;15877;52.344;16.790;2023-02-27T05:23:41;101645.15;;;3.70;65.80
28701;BME280;15877;52.344;16.790;2023-02-27T05:26:18;101643.76;;;3.72;65.70
28701;BME280;15877;52.344;16.790;2023-02-27T05:28:57;101646.70;;;3.76;65.62
28701;BME280;15877;52.344;16.790;2023-02-27T05:31:36;101648.90;;;3.80;65.45
28701;BME280;15877;52.344;16.790;2023-02-27T05:34:17;101644.55;;;3.82;65.56
28701;BME280;15877;52.344;16.790;2023-02-27T05:36:56;101647.79;;;3.82;65.59
28701;BME280;15877;52.344;16.790;2023-02-27T05:39:31;101645.30;;;3.83;65.45
28701;BME280;15877;52.344;16.790;2023-02-27T05:42:10;101638.67;;;3.69;65.65
28701;BME280;15877;52.344;16.790;2023-02-27T05:44:48;101658.95;;;3.81;65.79
28701;BME280;15877;52.344;16.790;2023-02-27T05:47:25;101660.32;;;3.83;65.73
28701;BME280;15877;52.344;16.790;2023-02-27T05:50:04;101661.30;;;3.83;65.79
28701;BME280;15877;52.344;16.790;2023-02-27T05:52:38;101665.91;;;3.85;65.66
28701;BME280;15877;52.344;16.790;2023-02-27T05:55:17;101668.08;;;3.87;65.66
28701;BME280;15877;52.344;16.790;2023-02-27T05:57:57;101670.42;;;3.89;65.65
28701;BME280;15877;52.344;16.790;2023-02-27T06:00:36;101674.40;;;3.92;65.75
28701;BME280;15877;52.344;16.790;2023-02-27T06:03:10;101673.19;;;3.93;65.82
28701;BME280;15877;52.344;16.790;2023-02-27T06:05:44;101684.09;;;3.97;65.49
28701;BME280;15877;52.344;16.790;2023-02-27T06:08:18;101684.70;;;3.97;65.57
28701;BME280;15877;52.344;16.790;2023-02-27T06:10:51;101687.30;;;3.96;65.71
28701;BME280;15877;52.344;16.790;2023-02-27T06:13:24;101688.48;;;3.94;65.77
28701;BME280;15877;52.344;16.790;2023-02-27T06:15:57;101689.43;;;3.97;65.87
28701;BME280;15877;52.344;16.790;2023-02-27T06:18:29;101686.96;;;4.00;65.73
28701;BME280;15877;52.344;16.790;2023-02-27T06:21:02;101689.40;;;4.00;65.98
28701;BME280;15877;52.344;16.790;2023-02-27T06:23:35;101693.23;;;4.02;65.94
28701;BME280;15877;52.344;16.790;2023-02-27T06:26:07;101688.27;;;4.03;65.85
28701;BME280;15877;52.344;16.790;2023-02-27T06:28:46;101682.16;;;3.97;66.23
28701;BME280;15877;52.344;16.790;2023-02-27T06:31:19;101669.16;;;3.95;66.22
28701;BME280;15877;52.344;16.790;2023-02-27T06:33:52;101691.96;;;4.02;66.21
28701;BME280;15877;52.344;16.790;2023-02-27T06:36:25;101693.91;;;4.06;66.08
28701;BME280;15877;52.344;16.790;2023-02-27T06:38:58;101681.32;;;3.99;66.11
28701;BME280;15877;52.344;16.790;2023-02-27T06:41:31;101683.17;;;4.01;65.95
28701;BME280;15877;52.344;16.790;2023-02-27T06:44:04;101700.71;;;4.13;65.92
28701;BME280;15877;52.344;16.790;2023-02-27T06:46:36;101703.75;;;4.16;66.12
28701;BME280;15877;52.344;16.790;2023-02-27T06:49:09;101704.77;;;4.19;65.76
28701;BME280;15877;52.344;16.790;2023-02-27T06:51:41;101705.05;;;4.19;66.03
28701;BME280;15877;52.344;16.790;2023-02-27T06:54:17;101708.11;;;4.21;66.02
28701;BME280;15877;52.344;16.790;2023-02-27T06:56:50;101705.27;;;4.19;65.89
28701;BME280;15877;52.344;16.790;2023-02-27T06:59:24;101714.93;;;4.25;65.95
28701;BME280;15877;52.344;16.790;2023-02-27T07:02:00;101715.08;;;4.26;65.97
28701;BME280;15877;52.344;16.790;2023-02-27T07:04:35;101720.58;;;4.28;66.05
28701;BME280;15877;52.344;16.790;2023-02-27T07:07:08;101721.05;;;4.30;66.12
28701;BME280;15877;52.344;16.790;2023-02-27T07:10:01;101723.23;;;4.36;66.12
28701;BME280;15877;52.344;16.790;2023-02-27T07:12:33;101724.34;;;4.36;66.23
28701;BME280;15877;52.344;16.790;2023-02-27T07:15:08;101731.54;;;4.43;66.18
28701;BME280;15877;52.344;16.790;2023-02-27T07:17:41;101732.69;;;4.47;66.13
28701;BME280;15877;52.344;16.790;2023-02-27T07:20:14;101735.69;;;4.51;66.08
28701;BME280;15877;52.344;16.790;2023-02-27T07:22:46;101740.08;;;4.51;66.35
28701;BME280;15877;52.344;16.790;2023-02-27T07:25:19;101743.12;;;4.50;66.27
28701;BME280;15877;52.344;16.790;2023-02-27T07:27:51;101740.56;;;4.57;65.98
28701;BME280;15877;52.344;16.790;2023-02-27T07:30:24;101740.29;;;4.57;65.90
28701;BME280;15877;52.344;16.790;2023-02-27T07:32:57;101743.17;;;4.59;66.29
28701;BME280;15877;52.344;16.790;2023-02-27T07:35:29;101747.52;;;4.61;65.97
28701;BME280;15877;52.344;16.790;2023-02-27T07:38:02;101747.23;;;4.62;65.81
28701;BME280;15877;52.344;16.790;2023-02-27T07:40:34;101750.02;;;4.64;65.89
28701;BME280;15877;52.344;16.790;2023-02-27T07:43:07;101757.57;;;4.63;66.06
28701;BME280;15877;52.344;16.790;2023-02-27T07:45:39;101756.20;;;4.72;65.70
28701;BME280;15877;52.344;16.790;2023-02-27T07:48:12;101756.93;;;4.75;65.62
28701;BME280;15877;52.344;16.790;2023-02-27T07:50:45;101755.52;;;4.74;65.62
28701;BME280;15877;52.344;16.790;2023-02-27T07:53:19;101761.27;;;4.81;65.35
28701;BME280;15877;52.344;16.790;2023-02-27T07:55:52;101758.36;;;4.84;65.35
28701;BME280;15877;52.344;16.790;2023-02-27T07:58:25;101758.04;;;4.79;65.40
28701;BME280;15877;52.344;16.790;2023-02-27T08:00:58;101759.98;;;4.82;65.49
28701;BME280;15877;52.344;16.790;2023-02-27T08:03:31;101762.45;;;4.87;65.34
28701;BME280;15877;52.344;16.790;2023-02-27T08:06:03;101761.23;;;4.98;64.86
28701;BME280;15877;52.344;16.790;2023-02-27T08:08:36;101767.36;;;4.95;64.66
28701;BME280;15877;52.344;16.790;2023-02-27T08:11:08;101771.91;;;4.87;64.81
28701;BME280;15877;52.344;16.790;2023-02-27T08:13:41;101769.66;;;4.88;65.14
28701;BME280;15877;52.344;16.790;2023-02-27T08:16:31;101767.16;;;4.93;65.28
28701;BME280;15877;52.344;16.790;2023-02-27T08:19:03;101772.67;;;5.00;65.01
28701;BME280;15877;52.344;16.790;2023-02-27T08:21:36;101777.27;;;5.06;64.72
28701;BME280;15877;52.344;16.790;2023-02-27T08:24:08;101780.91;;;5.14;64.73
28701;BME280;15877;52.344;16.790;2023-02-27T08:26:41;101788.75;;;5.12;64.59
28701;BME280;15877;52.344;16.790;2023-02-27T08:29:14;101785.78;;;5.16;64.29
28701;BME280;15877;52.344;16.790;2023-02-27T08:31:47;101774.36;;;5.09;64.67
28701;BME280;15877;52.344;16.790;2023-02-27T08:34:21;101790.55;;;5.25;64.64
28701;BME280;15877;52.344;16.790;2023-02-27T08:36:54;101791.57;;;5.33;64.41
28701;BME280;15877;52.344;16.790;2023-02-27T08:39:26;101792.09;;;5.35;64.42
28701;BME280;15877;52.344;16.790;2023-02-27T08:41:59;101799.05;;;5.42;64.22
28701;BME280;15877;52.344;16.790;2023-02-27T08:44:31;101800.02;;;5.47;63.52
28701;BME280;15877;52.344;16.790;2023-02-27T08:47:06;101803.15;;;5.48;63.91
28701;BME280;15877;52.344;16.790;2023-02-27T08:49:38;101805.39;;;5.53;64.03
28701;BME280;15877;52.344;16.790;2023-02-27T08:52:10;101806.88;;;5.54;64.39
28701;BME280;15877;52.344;16.790;2023-02-27T08:54:43;101806.44;;;5.58;64.70
28701;BME280;15877;52.344;16.790;2023-02-27T08:57:15;101794.20;;;5.54;64.43
28701;BME280;15877;52.344;16.790;2023-02-27T08:59:47;101807.15;;;5.65;64.47
28701;BME280;15877;52.344;16.790;2023-02-27T09:02:20;101806.73;;;5.74;63.93
28701;BME280;15877;52.344;16.790;2023-02-27T09:04:56;101805.84;;;5.79;63.95
28701;BME280;15877;52.344;16.790;2023-02-27T09:07:29;101810.00;;;5.87;63.82
28701;BME280;15877;52.344;16.790;2023-02-27T09:10:03;101818.56;;;5.89;64.00
28701;BME280;15877;52.344;16.790;2023-02-27T09:12:37;101800.67;;;5.83;63.92
28701;BME280;15877;52.344;16.790;2023-02-27T09:15:11;101817.78;;;6.07;63.21
28701;BME280;15877;52.344;16.790;2023-02-27T09:17:44;101816.48;;;6.09;62.89
28701;BME280;15877;52.344;16.790;2023-02-27T09:20:16;101813.41;;;6.14;62.36
28701;BME280;15877;52.344;16.790;2023-02-27T09:22:48;101821.20;;;6.17;61.86
28701;BME280;15877;52.344;16.790;2023-02-27T09:25:21;101819.30;;;6.21;61.58
28701;BME280;15877;52.344;16.790;2023-02-27T09:27:57;101818.24;;;6.30;61.75
28701;BME280;15877;52.344;16.790;2023-02-27T09:30:29;101819.57;;;6.32;61.43
28701;BME280;15877;52.344;16.790;2023-02-27T09:33:03;101825.98;;;6.31;61.10
28701;BME280;15877;52.344;16.790;2023-02-27T09:35:36;101828.21;;;6.34;61.42
28701;BME280;15877;52.344;16.790;2023-02-27T09:38:08;101829.23;;;6.42;61.06
28701;BME280;15877;52.344;16.790;2023-02-27T09:40:48;101827.70;;;6.48;60.88
28701;BME280;15877;52.344;16.790;2023-02-27T09:43:24;101834.36;;;6.51;60.99
28701;BME280;15877;52.344;16.790;2023-02-27T09:46:01;101832.55;;;6.56;60.71
28701;BME280;15877;52.344;16.790;2023-02-27T09:48:37;101830.38;;;6.55;60.41
28701;BME280;15877;52.344;16.790;2023-02-27T09:51:10;101839.30;;;6.66;60.08
28701;BME280;15877;52.344;16.790;2023-02-27T09:53:44;101840.25;;;6.61;60.03
28701;BME280;15877;52.344;16.790;2023-02-27T09:56:20;101840.02;;;6.71;59.95
28701;BME280;15877;52.344;16.790;2023-02-27T09:59:00;101842.67;;;6.68;59.35
28701;BME280;15877;52.344;16.790;2023-02-27T10:01:39;101842.05;;;6.67;59.37
28701;BME280;15877;52.344;16.790;2023-02-27T10:04:29;101847.67;;;6.73;59.53
28701;BME280;15877;52.344;16.790;2023-02-27T10:07:08;101830.77;;;6.70;59.63
28701;BME280;15877;52.344;16.790;2023-02-27T10:09:49;101844.27;;;6.83;59.40
28701;BME280;15877;52.344;16.790;2023-02-27T10:12:39;101848.18;;;6.81;59.27
28701;BME280;15877;52.344;16.790;2023-02-27T10:15:19;101845.09;;;6.81;58.72
28701;BME280;15877;52.344;16.790;2023-02-27T10:17:53;101848.52;;;6.72;57.08
28701;BME280;15877;52.344;16.790;2023-02-27T10:20:30;101850.02;;;6.74;56.75
28701;BME280;15877;52.344;16.790;2023-02-27T10:23:05;101854.92;;;6.87;57.53
28701;BME280;15877;52.344;16.790;2023-02-27T10:25:45;101854.70;;;6.87;56.33
28701;BME280;15877;52.344;16.790;2023-02-27T10:28:20;101857.52;;;6.90;56.06
28701;BME280;15877;52.344;16.790;2023-02-27T10:30:54;101856.91;;;6.87;54.91
28701;BME280;15877;52.344;16.790;2023-02-27T10:33:33;101852.80;;;6.91;55.61
28701;BME280;15877;52.344;16.790;2023-02-27T10:36:07;101857.52;;;6.95;55.77
28701;BME280;15877;52.344;16.790;2023-02-27T10:39:00;101858.97;;;6.95;56.05
28701;BME280;15877;52.344;16.790;2023-02-27T10:41:36;101860.92;;;7.00;56.30
28701;BME280;15877;52.344;16.790;2023-02-27T10:44:13;101861.58;;;7.06;56.38
28701;BME280;15877;52.344;16.790;2023-02-27T10:46:46;101857.95;;;7.07;55.99
28701;BME280;15877;52.344;16.790;2023-02-27T10:49:22;101859.58;;;7.17;56.28
28701;BME280;15877;52.344;16.790;2023-02-27T10:52:10;101852.23;;;7.23;56.03
28701;BME280;15877;52.344;16.790;2023-02-27T10:54:45;101853.45;;;7.03;54.94
28701;BME280;15877;52.344;16.790;2023-02-27T10:57:27;101853.58;;;7.13;54.79
28701;BME280;15877;52.344;16.790;2023-02-27T11:00:03;101850.94;;;7.13;53.91
28701;BME280;15877;52.344;16.790;2023-02-27T11:02:39;101853.27;;;7.04;53.76
28701;BME280;15877;52.344;16.790;2023-02-27T11:05:21;101849.48;;;6.94;54.03
28701;BME280;15877;52.344;16.790;2023-02-27T11:07:56;101854.20;;;7.04;55.12
28701;BME280;15877;52.344;16.790;2023-02-27T11:10:54;101855.75;;;6.95;54.05
28701;BME280;15877;52.344;16.790;2023-02-27T11:13:28;101851.13;;;6.83;52.80
28701;BME280;15877;52.344;16.790;2023-02-27T11:16:19;101852.34;;;6.71;53.29
28701;BME280;15877;52.344;16.790;2023-02-27T11:18:52;101851.26;;;6.73;53.62
28701;BME280;15877;52.344;16.790;2023-02-27T11:21:26;101850.59;;;6.77;53.73
28701;BME280;15877;52.344;16.790;2023-02-27T11:24:02;101848.29;;;6.67;53.53
28701;BME280;15877;52.344;16.790;2023-02-27T11:26:38;101850.55;;;6.63;53.73
28701;BME280;15877;52.344;16.790;2023-02-27T11:29:15;101848.55;;;6.65;53.55
28701;BME280;15877;52.344;16.790;2023-02-27T11:31:52;101851.57;;;6.68;53.19
28701;BME280;15877;52.344;16.790;2023-02-27T11:34:28;101850.33;;;6.69;53.50
28701;BME280;15877;52.344;16.790;2023-02-27T11:37:04;101850.84;;;6.69;53.68
28701;BME280;15877;52.344;16.790;2023-02-27T11:39:45;101851.77;;;6.66;53.80
28701;BME280;15877;52.344;16.790;2023-02-27T11:42:25;101849.45;;;6.72;53.34
28701;BME280;15877;52.344;16.790;2023-02-27T11:45:02;101848.92;;;6.65;52.27
28701;BME280;15877;52.344;16.790;2023-02-27T11:47:39;101846.44;;;6.65;52.30
28701;BME280;15877;52.344;16.790;2023-02-27T11:50:34;101847.70;;;6.71;53.02
28701;BME280;15877;52.344;16.790;2023-02-27T11:53:21;101848.52;;;6.75;53.86
28701;BME280;15877;52.344;16.790;2023-02-27T11:55:59;101849.98;;;6.77;53.69
28701;BME280;15877;52.344;16.790;2023-02-27T11:58:39;101847.08;;;6.75;52.57
28701;BME280;15877;52.344;16.790;2023-02-27T12:01:19;101848.46;;;6.69;50.99
28701;BME280;15877;52.344;16.790;2023-02-27T12:03:58;101847.15;;;6.68;50.99
28701;BME280;15877;52.344;16.790;2023-02-27T12:06:36;101849.90;;;6.69;51.03
28701;BME280;15877;52.344;16.790;2023-02-27T12:09:28;101850.23;;;6.57;50.57
28701;BME280;15877;52.344;16.790;2023-02-27T12:12:08;101843.97;;;6.61;51.12
28701;BME280;15877;52.344;16.790;2023-02-27T12:14:51;101847.26;;;6.59;50.95
28701;BME280;15877;52.344;16.790;2023-02-27T12:17:28;101845.96;;;6.55;50.88
28701;BME280;15877;52.344;16.790;2023-02-27T12:20:17;101846.92;;;6.66;50.33
28701;BME280;15877;52.344;16.790;2023-02-27T12:22:52;101845.37;;;6.60;50.20
28701;BME280;15877;52.344;16.790;2023-02-27T12:25:34;101847.73;;;6.61;50.23
28701;BME280;15877;52.344;16.790;2023-02-27T12:28:16;101848.61;;;6.61;50.20
28701;BME280;15877;52.344;16.790;2023-02-27T12:31:01;101828.59;;;6.53;50.12
28701;BME280;15877;52.344;16.790;2023-02-27T12:33:40;101844.66;;;6.63;50.13
28701;BME280;15877;52.344;16.790;2023-02-27T12:36:16;101852.67;;;6.62;50.78
28701;BME280;15877;52.344;16.790;2023-02-27T12:38:48;101854.48;;;6.69;50.58
28701;BME280;15877;52.344;16.790;2023-02-27T12:41:32;101853.73;;;6.68;51.63
28701;BME280;15877;52.344;16.790;2023-02-27T12:44:27;101855.13;;;6.81;51.69
28701;BME280;15877;52.344;16.790;2023-02-27T12:47:11;101853.39;;;6.89;49.91
28701;BME280;15877;52.344;16.790;2023-02-27T12:49:53;101853.94;;;6.89;49.52
28701;BME280;15877;52.344;16.790;2023-02-27T12:52:38;101855.44;;;7.01;49.84
28701;BME280;15877;52.344;16.790;2023-02-27T12:55:16;101853.89;;;7.03;50.14
28701;BME280;15877;52.344;16.790;2023-02-27T12:58:05;101854.00;;;7.17;50.40
28701;BME280;15877;52.344;16.790;2023-02-27T13:00:44;101856.34;;;7.19;49.12
28701;BME280;15877;52.344;16.790;2023-02-27T13:03:22;101854.29;;;7.27;49.30
28701;BME280;15877;52.344;16.790;2023-02-27T13:05:59;101851.13;;;7.27;48.67
28701;BME280;15877;52.344;16.790;2023-02-27T13:08:46;101849.80;;;7.27;48.44
28701;BME280;15877;52.344;16.790;2023-02-27T13:11:22;101850.16;;;7.21;47.85
28701;BME280;15877;52.344;16.790;2023-02-27T13:13:59;101853.20;;;7.24;47.68
28701;BME280;15877;52.344;16.790;2023-02-27T13:16:36;101859.69;;;7.31;48.19
28701;BME280;15877;52.344;16.790;2023-02-27T13:19:15;101857.23;;;7.32;48.22
28701;BME280;15877;52.344;16.790;2023-02-27T13:21:51;101855.49;;;7.38;48.20
28701;BME280;15877;52.344;16.790;2023-02-27T13:24:26;101858.70;;;7.38;48.26
28701;BME280;15877;52.344;16.790;2023-02-27T13:27:03;101853.43;;;7.39;48.12
28701;BME280;15877;52.344;16.790;2023-02-27T13:29:41;101850.16;;;7.36;47.33
28701;BME280;15877;52.344;16.790;2023-02-27T13:32:24;101849.33;;;7.40;46.89
28701;BME280;15877;52.344;16.790;2023-02-27T13:35:22;101851.73;;;7.28;45.71
28701;BME280;15877;52.344;16.790;2023-02-27T13:38:00;101853.64;;;7.21;46.00
28701;BME280;15877;52.344;16.790;2023-02-27T13:40:38;101857.23;;;7.15;46.49
28701;BME280;15877;52.344;16.790;2023-02-27T13:43:34;101855.73;;;7.18;46.81
28701;BME280;15877;52.344;16.790;2023-02-27T13:46:24;101858.45;;;7.13;47.08
28701;BME280;15877;52.344;16.790;2023-02-27T13:49:23;101855.13;;;7.16;47.56
28701;BME280;15877;52.344;16.790;2023-02-27T13:52:00;101860.11;;;6.99;47.74